map of KMBO home
Great Circle Mapper logo
KMBO - Airport
Location
City:  Madison, Mississippi, United States
Name:Bruce Campbell Field
ICAO:KMBO
FAA LID:MBO

Details
Type:Airport (Airfield)
Use:Public/Civil
Latitude:3226'19"N (32.438667)
Longitude:9006'11"W (-90.103110)
Datum:WGS 1984
Elevation:325 ft (99 m)
Variation:0.89W (WMM2015 magnetic declination)
-0.11 annual change
Runways:1
Longest:4444 × 75 ft (1355 × 23 m), paved

Time
Time Zone:UTC-6 (DST-5)
Local Time:

Weather
METAR:KMBO 251735Z AUTO 11005KT 10SM CLR 32/22 A3000 RMK AO2 PWINO

Related Locations
Nearby:
Farthest:MQZ: 10984 mi / 17677 km
Margaret River [Margaret River Airport], WA, AU

Find:

   beyond  
but within

Other Information
Maps:
NOTAMs:
Links:
Sources:

  
flag of United States
flag of Mississippi
  

Sectional Chart

Flight Planning
at skyvector.com

Satellite Image

Google Maps Satellite view

 

Copyright © 2004-2016 Karl L. Swartz. All rights reserved.
The Great Circle Mapper name and logo are trademarks of the Great Circle Mapper.
All other trademarks mentioned herein belong to their respective owners.
Please see credits for attibutions and further copyright information.

  Follow gcmap on Facebook Follow gcmap on Twitter Follow gcmap on Google+ GCmap on LinkedIn

hCard Microformat

Geo Microformat